Byron, CA (94514)

8:32 AM PDT on August 27, 2014 (GMT -0700)
#1 Wuzzy Place | Change Station
CLOSE
Current Station
Personal Weather Station
Location: Discovery Bay, CA
Elevation: -3 ft
Nearby Weather Stations

Elev -3 ft 37.89 °N, 121.59 °W | Updated 12 seconds ago

Clear
Clear
66.5 °F
Feels Like 66.5 °F
N
0.0
Wind Variable Wind from SSW
Gusts 2.0 mph

Today
High -- | Low -- °F
--% Chance of Precip.
Yesterday
High -- | Low -- °F
Precip. -- in
6:32 AM 7:42 PM
Waxing Crescent, 4% visible
Pressure 30.04 in
Visibility 10.0 miles
Clouds Clear
Dew Point 60 °F
Humidity 79%
Rainfall 0.00 in
Snow Depth Not available.
UV 1 out of 12
Pollen 7.00 out of 12
PM2.5 Good
Flu Activity Not available.
METAR KLVK 271453Z AUTO 00000KT 10SM CLR 18/13 A3005 RMK AO2 SLP172 T01780133 51010 TSNO

More Conditions Fewer Conditions

Pressure 30.04 in
Visibility 10.0 miles
Clouds Clear
Dew Point 60 °F
Humidity 79%
Rainfall 0.00 in
Snow Depth Not available.
UV 1 out of 12
Pollen 7.00 out of 12
PM2.5 Good
Flu Activity Not available.
METAR KLVK 271453Z AUTO 00000KT 10SM CLR 18/13 A3005 RMK AO2 SLP172 T01780133 51010 TSNO

More Conditions Fewer Conditions

10-Day Weather Forecast

Almanac

Astronomy

Aug. 27, 2014 Rise Set
Actual Time 6:32 AM PDT 7:42 PM PDT
Civil Twilight 6:05 AM PDT 8:10 PM PDT
Nautical Twilight 5:32 AM PDT 8:42 PM PDT
Astronomical Twilight 4:58 AM PDT 9:16 PM PDT
Moon 8:30 AM PDT 8:41 PM PDT
Length of Visible Light 14h 04m
Length of Day
13h 10m
Tomorrow will be 2m 18s shorter.
Waxing Crescent, 4% of the Moon is Illuminated
Today
Waxing Crescent
Sep 2
First Quarter
Sep 8
Full
Sep 15
Last Quarter
Sep 24
New

Today's Extremes

State Highs State Lows

Community

WunderPhotos

Upload Photos

1,747,709 photos uploaded!

Nearby

Air Quality

  Air Quality AQ Index Pollutant
Yesterday Good
OZONE
Yesterday Good
PM2.5
Current Good
PM2.5
Wednesday Good
OZONE
Thursday Good
OZONE
Friday Good
OZONE
Saturday Good
OZONE
Sunday Good
OZONE

Snow Depth

Station Depth Elevation
Blue Lakes 0 in 8000 ft
Forestdale Creek 0 in 8029 ft
Echo Peak 1 in 7800 ft
Ebbetts Pass 0 in 8700 ft
Leavitt Lake 1 in 9400 ft

Earthquake Activity

City Distance Mag. Time & Date
The Geysers, California 92 miles 2.6 7:42 AM PDT
2014-08-27
Soledad, California 96 miles 2.6 12:15 PM PDT
2014-08-26
Napa, California 47 miles 2.5 10:56 AM PDT
2014-08-26
Napa, California 47 miles 3.0 6:45 AM PDT
2014-08-26
Minimum magnitude displayed is 2.5.

Coastal Water Temperatures

Place Temperature
San Francisco, CA 64.9 °F
Richmond, CA 66.9 °F
Port Chicago, CA 68.0 °F

Nearby Weather Stations